Time;durP1;ratioP1;P1;durP2;ratioP2;P2;SDS_P1;SDS_P2;PMS_P1;PMS_P2;Temp;Humidity;BMP_temperature;BMP_pressure;BME280_temperature;BME280_humidity;BME280_pressure;Samples;Min_cycle;Max_cycle;Signal;HPM_P1;HPM_P2
2022/04/13 00:02:06;;;;;;;10.77;3.15;;;;;;;9.26;96.98;98075.97;4967607;29;20031;-90
2022/04/13 00:04:32;;;;;;;4.82;2.80;;;;;;;9.32;96.75;98077.59;4966530;29;20086;-90
2022/04/13 00:06:58;;;;;;;5.15;3.03;;;;;;;9.18;97.00;98067.44;4966417;28;20327;-90
2022/04/13 00:09:24;;;;;;;11.50;3.22;;;;;;;9.23;97.07;98073.41;4966435;29;20038;-90
2022/04/13 00:11:51;;;;;;;5.88;3.60;;;;;;;9.25;96.78;98076.00;4982634;28;20192;-90
2022/04/13 00:14:18;;;;;;;11.32;3.60;;;;;;;9.20;96.73;98072.66;4966344;29;20049;-90
2022/04/13 00:16:43;;;;;;;5.32;3.20;;;;;;;9.25;97.17;98065.50;4967495;29;20027;-90
2022/04/13 00:19:08;;;;;;;7.75;3.45;;;;;;;9.25;97.46;98060.25;4966218;29;20027;-90
2022/04/13 00:21:34;;;;;;;6.60;3.30;;;;;;;9.34;97.75;98055.66;4966190;29;20019;-90
2022/04/13 00:23:59;;;;;;;9.32;3.40;;;;;;;9.38;98.13;98057.31;4967185;29;20242;-91
2022/04/13 00:26:25;;;;;;;8.73;3.25;;;;;;;9.47;96.85;98072.88;4965966;29;20255;-90
2022/04/13 00:28:50;;;;;;;5.53;3.45;;;;;;;9.38;96.98;98072.19;4967157;29;20386;-90
2022/04/13 00:31:16;;;;;;;7.28;3.88;;;;;;;9.40;96.98;98067.78;4965973;28;20023;-90
2022/04/13 00:33:41;;;;;;;9.65;3.63;;;;;;;9.44;96.89;98070.31;4966317;29;20034;-90
2022/04/13 00:36:07;;;;;;;7.75;3.92;;;;;;;9.48;96.78;98078.97;4965905;29;20023;-90
2022/04/13 00:38:32;;;;;;;10.43;3.83;;;;;;;9.52;96.20;98080.63;4965900;29;20023;-90
2022/04/13 00:40:58;;;;;;;6.03;3.50;;;;;;;9.26;96.40;98072.47;4965830;29;20023;-90
2022/04/13 00:43:24;;;;;;;6.45;3.58;;;;;;;9.29;97.55;98077.66;4966902;29;20023;-90
2022/04/13 00:45:51;;;;;;;7.57;3.10;;;;;;;9.32;97.77;98077.59;4966238;29;20050;-90
2022/04/13 00:48:27;;;;;;;5.43;3.28;;;;;;;9.24;98.15;98071.66;4965778;28;20019;-90
2022/04/13 00:50:53;;;;;;;7.60;3.83;;;;;;;9.30;98.37;98074.16;4965710;29;20081;-90
2022/04/13 00:53:21;;;;;;;5.10;3.15;;;;;;;9.39;97.70;98069.53;4964938;28;20342;-90
2022/04/13 00:55:49;;;;;;;6.20;3.20;;;;;;;9.30;97.21;98079.41;4965459;29;20035;-90
2022/04/13 00:58:17;;;;;;;5.80;2.92;;;;;;;9.30;97.97;98082.03;4965426;29;20289;-90
2022/04/13 01:00:48;;;;;;;6.22;3.47;;;;;;;9.34;98.04;98081.94;4965709;28;20023;-90
2022/04/13 01:03:17;;;;;;;7.63;3.80;;;;;;;9.33;98.01;98080.19;4965591;29;20065;-90
2022/04/13 01:05:44;;;;;;;7.70;3.83;;;;;;;9.31;98.12;98075.88;4965545;29;20019;-89
2022/04/13 01:08:11;;;;;;;5.90;3.13;;;;;;;9.24;97.93;98080.38;4965568;29;20027;-90
2022/04/13 01:10:38;;;;;;;4.47;2.67;;;;;;;9.30;97.43;98096.00;4949862;29;20265;-90
2022/04/13 01:13:04;;;;;;;5.63;2.97;;;;;;;9.21;97.23;98088.34;4965435;28;20019;-90
2022/04/13 01:15:29;;;;;;;5.97;3.22;;;;;;;9.18;96.84;98092.81;4965275;29;20023;-90
2022/04/13 01:17:54;;;;;;;6.75;3.50;;;;;;;9.01;96.48;98095.78;4966838;29;20031;-90
2022/04/13 01:20:23;;;;;;;5.90;3.22;;;;;;;8.93;97.08;98092.50;4965474;29;20019;-90
2022/04/13 01:22:49;;;;;;;8.07;3.25;;;;;;;9.03;96.70;98101.88;4965127;29;20019;-89
2022/04/13 01:25:14;;;;;;;6.03;3.28;;;;;;;8.92;96.89;98103.00;4965341;29;20019;-90
2022/04/13 01:27:40;;;;;;;7.25;3.58;;;;;;;8.63;96.60;98101.84;4966359;29;20031;-90
2022/04/13 01:30:07;;;;;;;7.05;3.00;;;;;;;8.61;98.76;98102.78;4965358;29;20065;-90
2022/04/13 01:32:33;;;;;;;11.52;4.00;;;;;;;8.66;99.55;98107.03;4965171;29;20019;-90
2022/04/13 01:34:59;;;;;;;9.57;3.55;;;;;;;8.58;98.55;98106.31;4965046;28;20027;-90
2022/04/13 01:37:24;;;;;;;5.07;3.25;;;;;;;8.57;98.08;98101.97;4965364;29;20058;-90
2022/04/13 01:39:50;;;;;;;7.80;3.90;;;;;;;8.52;97.81;98109.06;4965212;29;20046;-89
2022/04/13 01:42:16;;;;;;;6.63;3.45;;;;;;;8.44;97.51;98100.50;4965137;29;20196;-90
2022/04/13 01:44:42;;;;;;;7.00;3.65;;;;;;;8.42;97.78;98107.50;4965040;29;20095;-90
2022/04/13 01:47:08;;;;;;;6.60;3.42;;;;;;;8.36;97.58;98105.00;4965393;28;20050;-90
2022/04/13 01:49:35;;;;;;;6.47;3.30;;;;;;;8.31;97.74;98109.47;4964984;29;20030;-90
2022/04/13 01:52:01;;;;;;;6.75;3.95;;;;;;;8.30;97.71;98114.75;4965066;29;20227;-90
2022/04/13 01:54:27;;;;;;;10.65;4.68;;;;;;;8.29;96.77;98118.28;4964836;29;20031;-90
2022/04/13 01:56:52;;;;;;;13.88;4.50;;;;;;;8.29;96.92;98116.50;4964952;29;20146;-90
2022/04/13 01:59:18;;;;;;;10.60;4.43;;;;;;;8.19;96.81;98117.53;4981413;28;20090;-90
2022/04/13 02:01:44;;;;;;;9.10;4.05;;;;;;;8.07;97.42;98120.38;4964878;29;20039;-90
2022/04/13 02:04:20;;;;;;;8.15;4.35;;;;;;;8.03;97.33;98117.81;4967460;28;20319;-90
2022/04/13 02:06:47;;;;;;;14.05;4.57;;;;;;;8.01;97.32;98130.97;4984678;28;20027;-90
2022/04/13 02:09:13;;;;;;;8.85;3.72;;;;;;;7.98;97.59;98125.75;4969035;28;20019;-90
2022/04/13 02:11:38;;;;;;;6.55;3.42;;;;;;;7.99;97.69;98122.28;4968661;29;20031;-90
2022/04/13 02:14:04;;;;;;;7.85;4.00;;;;;;;7.85;97.63;98126.88;4968504;29;20038;-90
2022/04/13 02:16:30;;;;;;;8.73;3.80;;;;;;;7.86;97.80;98115.53;4968605;29;20019;-90
2022/04/13 02:18:55;;;;;;;12.48;3.85;;;;;;;7.83;98.19;98120.81;4968920;28;20090;-89
2022/04/13 02:21:21;;;;;;;7.82;3.40;;;;;;;7.82;97.52;98119.06;4968555;29;20029;-89
2022/04/13 02:23:46;;;;;;;7.22;2.95;;;;;;;7.85;96.70;98119.00;4969535;29;20042;-90
2022/04/13 02:26:12;;;;;;;9.70;4.60;;;;;;;7.66;96.48;98117.56;4968476;29;20023;-89
2022/04/13 02:28:38;;;;;;;8.70;4.00;;;;;;;7.52;97.86;98116.94;4968310;29;20019;-90
2022/04/13 02:31:03;;;;;;;7.75;4.38;;;;;;;7.58;99.57;98123.84;4968356;29;20019;-89
2022/04/13 02:33:31;;;;;;;7.57;3.90;;;;;;;7.49;98.76;98119.59;4968439;29;20023;-89
2022/04/13 02:35:58;;;;;;;9.27;3.65;;;;;;;7.45;99.26;98115.31;4968507;29;20030;-90
2022/04/13 02:38:25;;;;;;;6.97;4.07;;;;;;;7.58;99.07;98124.72;4968507;29;20218;-90
2022/04/13 02:40:50;;;;;;;8.68;4.28;;;;;;;7.59;98.79;98120.34;4968281;29;20095;-90
2022/04/13 02:43:17;;;;;;;8.48;4.15;;;;;;;7.58;99.21;98119.47;4968204;29;20062;-90
2022/04/13 02:45:42;;;;;;;9.45;3.63;;;;;;;7.62;99.37;98128.13;4969398;29;20074;-90
2022/04/13 02:48:08;;;;;;;9.48;3.53;;;;;;;7.66;98.51;98117.56;4967776;29;20342;-90
2022/04/13 02:50:34;;;;;;;14.32;3.20;;;;;;;7.72;98.01;98122.72;4967869;28;20019;-90
2022/04/13 02:52:59;;;;;;;7.75;3.83;;;;;;;7.77;97.66;98120.91;4967729;28;20026;-90
2022/04/13 02:55:25;;;;;;;8.82;3.13;;;;;;;7.83;97.60;98126.03;4967680;29;20023;-90
2022/04/13 02:57:51;;;;;;;7.07;3.13;;;;;;;7.79;96.27;98129.59;4967731;29;20054;-90
2022/04/13 03:00:17;;;;;;;8.65;3.80;;;;;;;7.71;96.55;98130.59;4967705;29;20023;-90
2022/04/13 03:02:44;;;;;;;5.68;3.17;;;;;;;7.70;97.65;98134.13;4967594;29;20023;-90
2022/04/13 03:05:10;;;;;;;7.35;3.47;;;;;;;7.74;97.93;98131.44;4968728;29;20015;-90
2022/04/13 03:07:36;;;;;;;7.80;3.63;;;;;;;7.77;97.71;98123.53;4967478;29;20023;-90
2022/04/13 03:10:03;;;;;;;6.30;3.30;;;;;;;7.86;97.31;98131.25;4967377;29;20026;-90
2022/04/13 03:12:28;;;;;;;6.35;3.33;;;;;;;7.93;96.74;98126.75;4967674;29;20023;-90
2022/04/13 03:14:54;;;;;;;6.40;3.25;;;;;;;7.78;97.51;98120.00;4966646;28;20103;-90
2022/04/13 03:17:19;;;;;;;4.13;2.72;;;;;;;7.83;97.75;98125.16;4967360;29;20023;-90
2022/04/13 03:19:44;;;;;;;5.78;2.72;;;;;;;7.90;97.70;98121.56;4967309;29;20023;-90
2022/04/13 03:22:10;;;;;;;4.10;2.40;;;;;;;7.92;96.60;98130.25;4967232;29;20030;-90
2022/04/13 03:24:35;;;;;;;4.68;2.70;;;;;;;7.80;97.11;98131.34;4967073;29;20402;-90
2022/04/13 03:27:01;;;;;;;5.00;2.45;;;;;;;7.56;97.35;98136.09;4967136;28;20031;-90
2022/04/13 03:29:27;;;;;;;5.63;2.30;;;;;;;7.56;98.44;98136.94;4967138;29;20094;-90
2022/04/13 03:31:52;;;;;;;4.97;2.72;;;;;;;7.80;97.86;98136.56;4967232;29;20257;-90
2022/04/13 03:34:20;;;;;;;10.00;3.42;;;;;;;7.84;97.33;98132.13;4968153;29;20023;-90
2022/04/13 03:36:50;;;;;;;4.10;2.80;;;;;;;7.83;97.87;98131.28;4966993;29;20061;-90
2022/04/13 03:39:16;;;;;;;11.25;2.92;;;;;;;7.76;98.94;98127.03;4966901;29;20090;-90
2022/04/13 03:41:42;;;;;;;7.20;3.03;;;;;;;7.87;99.09;98132.97;4966824;29;20027;-90
2022/04/13 03:44:08;;;;;;;7.53;2.95;;;;;;;7.95;98.14;98136.31;4966848;29;20019;-90
2022/04/13 03:46:34;;;;;;;7.57;3.05;;;;;;;7.92;97.94;98140.75;4967977;29;20214;-90
2022/04/13 03:49:00;;;;;;;5.95;2.40;;;;;;;7.85;98.02;98139.97;4966779;29;20023;-90
2022/04/13 03:51:26;;;;;;;5.20;2.80;;;;;;;7.76;98.34;98129.66;4966880;29;20019;-90
2022/04/13 03:53:51;;;;;;;5.68;2.95;;;;;;;7.76;98.59;98129.66;4966670;29;20027;-90
2022/04/13 03:56:17;;;;;;;4.65;2.85;;;;;;;7.76;98.64;98134.91;4966692;29;20023;-90
2022/04/13 03:58:42;;;;;;;4.65;2.80;;;;;;;7.78;97.88;98133.09;4966712;29;20042;-90
2022/04/13 04:01:11;;;;;;;6.10;3.20;;;;;;;7.77;97.87;98128.75;4982729;28;20066;-90
2022/04/13 04:03:37;;;;;;;7.47;2.38;;;;;;;7.72;97.90;98133.19;4966479;29;20023;-90
2022/04/13 04:06:03;;;;;;;12.77;3.00;;;;;;;7.72;98.02;98122.72;4966481;29;20135;-90
2022/04/13 04:08:31;;;;;;;7.28;2.90;;;;;;;7.78;97.41;98127.88;4966395;29;20019;-90
2022/04/13 04:10:56;;;;;;;4.97;2.60;;;;;;;7.76;97.98;98120.94;4967572;29;20382;-90
2022/04/13 04:13:22;;;;;;;11.30;2.85;;;;;;;7.79;97.73;98128.75;4966308;29;20061;-90
2022/04/13 04:15:47;;;;;;;3.65;2.40;;;;;;;7.73;97.57;98145.44;4966199;29;20106;-90
2022/04/13 04:18:15;;;;;;;6.97;3.80;;;;;;;7.54;98.92;98137.88;4966229;29;20023;-90
2022/04/13 04:20:40;;;;;;;5.97;3.10;;;;;;;7.61;99.67;98144.72;4982275;28;20023;-90
2022/04/13 04:23:05;;;;;;;5.57;3.10;;;;;;;7.58;100.00;98150.91;4967042;29;20047;-90
2022/04/13 04:25:31;;;;;;;6.50;2.80;;;;;;;7.56;99.33;98150.03;4966040;29;20027;-90
2022/04/13 04:27:56;;;;;;;12.13;3.58;;;;;;;7.64;98.96;98153.41;4965146;28;20027;-90
2022/04/13 04:30:22;;;;;;;7.32;2.95;;;;;;;7.74;98.44;98157.63;4966008;29;20023;-90
2022/04/13 04:32:47;;;;;;;5.45;2.17;;;;;;;7.78;98.00;98159.28;4965938;28;20019;-90
2022/04/13 04:35:13;;;;;;;6.22;2.83;;;;;;;7.86;98.14;98162.69;4966219;29;20039;-90
2022/04/13 04:37:38;;;;;;;5.85;3.08;;;;;;;7.91;98.24;98166.06;4967308;29;20078;-90
2022/04/13 04:40:05;;;;;;;6.70;3.35;;;;;;;7.94;98.51;98173.88;4965888;28;20023;-90
2022/04/13 04:42:30;;;;;;;7.85;2.88;;;;;;;7.99;99.22;98166.81;4965743;29;20218;-90
2022/04/13 04:44:59;;;;;;;6.85;2.92;;;;;;;8.12;99.04;98164.84;4965745;29;20023;-90
2022/04/13 04:47:25;;;;;;;7.85;2.95;;;;;;;8.08;98.08;98156.19;4965696;29;20318;-90
2022/04/13 04:49:51;;;;;;;5.85;2.90;;;;;;;8.06;98.53;98154.47;4966686;29;20200;-90
2022/04/13 04:52:17;;;;;;;3.78;2.40;;;;;;;8.15;98.39;98164.78;4965656;29;20030;-90
2022/04/13 04:54:42;;;;;;;6.00;2.67;;;;;;;8.13;97.71;98167.44;4965470;29;20219;-90
2022/04/13 04:57:08;;;;;;;8.75;2.88;;;;;;;8.09;97.88;98172.75;4966622;29;20023;-90
2022/04/13 04:59:35;;;;;;;5.90;2.13;;;;;;;8.18;97.55;98176.09;4965426;29;20027;-90
2022/04/13 05:02:01;;;;;;;6.50;3.10;;;;;;;8.09;97.52;98173.63;4965699;29;20086;-90
2022/04/13 05:04:26;;;;;;;4.22;2.80;;;;;;;8.03;98.86;98178.97;4965368;29;20018;-90
2022/04/13 05:06:52;;;;;;;6.50;2.85;;;;;;;8.13;98.58;98177.94;4966430;29;20019;-90
2022/04/13 05:09:18;;;;;;;5.30;2.67;;;;;;;8.20;98.33;98184.78;4965325;29;20030;-90
2022/04/13 05:11:44;;;;;;;10.00;3.03;;;;;;;8.25;99.47;98185.63;4965260;29;20023;-90
2022/04/13 05:14:10;;;;;;;4.68;2.58;;;;;;;8.34;98.47;98177.59;4965292;29;20027;-90
2022/04/13 05:16:35;;;;;;;6.18;2.83;;;;;;;8.44;98.28;98178.28;4965206;29;20102;-90
2022/04/13 05:19:01;;;;;;;7.63;3.00;;;;;;;8.49;98.50;98174.69;4966405;29;20025;-90
2022/04/13 05:21:26;;;;;;;5.78;3.17;;;;;;;8.62;98.25;98172.72;4965324;29;20022;-90
2022/04/13 05:23:52;;;;;;;6.45;2.92;;;;;;;8.68;98.18;98168.19;4965118;29;20054;-90
2022/04/13 05:26:18;;;;;;;4.68;2.25;;;;;;;8.64;98.18;98171.78;4981306;28;20026;-90
2022/04/13 05:28:45;;;;;;;6.30;2.70;;;;;;;8.70;97.83;98186.53;4965133;29;20107;-90
2022/04/13 05:31:11;;;;;;;5.40;2.90;;;;;;;8.69;97.71;98195.31;4964955;29;20223;-90
2022/04/13 05:33:37;;;;;;;7.57;2.65;;;;;;;8.68;97.96;98210.16;4965050;29;20030;-90
2022/04/13 05:36:05;;;;;;;5.93;3.10;;;;;;;8.65;97.13;98210.25;4964913;29;20031;-90
2022/04/13 05:38:31;;;;;;;6.43;2.72;;;;;;;8.70;97.09;98208.41;4964575;29;20026;-90
2022/04/13 05:40:56;;;;;;;7.78;2.95;;;;;;;8.70;97.21;98213.63;4966063;29;20326;-91
2022/04/13 05:43:22;;;;;;;5.53;2.65;;;;;;;8.85;97.64;98216.88;4964894;29;20107;-90
2022/04/13 05:45:47;;;;;;;4.72;2.70;;;;;;;8.99;97.39;98225.34;4964961;29;20042;-90
2022/04/13 05:48:13;;;;;;;6.82;3.13;;;;;;;9.08;96.89;98235.66;4964879;29;20214;-90
2022/04/13 05:50:38;;;;;;;3.97;2.63;;;;;;;9.17;97.29;98246.00;4964820;29;20026;-90
2022/04/13 05:53:04;;;;;;;7.32;2.78;;;;;;;9.16;97.31;98249.50;4965159;29;20050;-90
2022/04/13 05:55:29;;;;;;;5.25;2.63;;;;;;;9.27;97.23;98244.91;4965149;29;20074;-90
2022/04/13 05:57:56;;;;;;;7.07;2.80;;;;;;;9.35;97.09;98256.09;4964785;29;20052;-90
2022/04/13 06:00:21;;;;;;;6.25;2.90;;;;;;;9.44;97.04;98245.41;4965008;29;20034;-90
2022/04/13 06:02:47;;;;;;;5.05;2.50;;;;;;;9.54;97.10;98254.81;4964661;29;20023;-90
2022/04/13 06:05:13;;;;;;;7.75;2.40;;;;;;;9.59;97.01;98245.94;4964698;29;20027;-90
2022/04/13 06:07:40;;;;;;;4.03;2.15;;;;;;;9.71;96.77;98256.19;4964760;29;20023;-90
2022/04/13 06:10:06;;;;;;;4.70;2.85;;;;;;;9.82;96.68;98263.84;4964708;29;20024;-91
2022/04/13 06:12:32;;;;;;;4.72;2.70;;;;;;;9.92;95.85;98265.38;4966231;29;20023;-90
2022/04/13 06:15:02;;;;;;;6.13;3.03;;;;;;;9.90;95.21;98273.28;4965699;29;20077;-90
2022/04/13 06:17:27;;;;;;;6.78;2.70;;;;;;;9.82;95.52;98258.59;4964663;28;20019;-90
2022/04/13 06:19:52;;;;;;;5.32;2.75;;;;;;;10.16;95.17;98270.94;4964674;29;20095;-91
2022/04/13 06:22:18;;;;;;;4.88;2.05;;;;;;;10.42;93.75;98272.97;4964395;29;20090;-90
2022/04/13 06:24:43;;;;;;;3.55;2.05;;;;;;;10.55;92.15;98274.41;4964832;29;20263;-90
2022/04/13 06:27:09;;;;;;;7.55;2.28;;;;;;;10.66;91.80;98282.88;4965797;29;20043;-90
2022/04/13 06:29:34;;;;;;;4.22;2.38;;;;;;;11.06;90.29;98286.22;4980972;28;20026;-90
2022/04/13 06:31:59;;;;;;;3.33;2.03;;;;;;;11.43;88.40;98279.03;4965951;28;20023;-90
2022/04/13 06:34:25;;;;;;;3.35;2.22;;;;;;;11.48;87.42;98287.66;4965446;29;20027;-90
2022/04/13 06:36:50;;;;;;;4.43;2.60;;;;;;;11.83;86.74;98294.59;4964294;29;20047;-90
2022/04/13 06:39:16;;;;;;;8.93;4.53;;;;;;;12.16;84.70;98289.16;4964434;29;20019;-90
2022/04/13 06:41:41;;;;;;;7.95;4.45;;;;;;;12.74;83.45;98289.00;4964331;29;20347;-91
2022/04/13 06:44:06;;;;;;;8.25;4.38;;;;;;;13.19;82.42;98296.31;4964400;29;20022;-91
2022/04/13 06:46:36;;;;;;;11.70;5.38;;;;;;;13.59;80.63;98297.47;4964387;29;20023;-91
2022/04/13 06:49:02;;;;;;;16.63;7.05;;;;;;;13.73;78.89;98299.63;4964353;28;20023;-91
2022/04/13 06:51:29;;;;;;;15.60;7.35;;;;;;;13.98;76.86;98306.56;4967031;29;20050;-91
2022/04/13 06:53:54;;;;;;;16.52;7.63;;;;;;;14.43;75.53;98315.38;4967662;29;20046;-91
2022/04/13 06:56:20;;;;;;;21.08;8.57;;;;;;;14.65;76.55;98305.66;4967964;29;20058;-91
2022/04/13 06:58:46;;;;;;;13.20;5.93;;;;;;;15.27;74.49;98310.97;4967590;29;20027;-91
2022/04/13 07:01:12;;;;;;;9.93;5.03;;;;;;;15.69;72.61;98314.44;4967653;29;20123;-91
2022/04/13 07:03:37;;;;;;;11.93;4.47;;;;;;;15.92;71.63;98306.31;4967525;29;20319;-91
2022/04/13 07:06:03;;;;;;;18.50;4.90;;;;;;;16.04;70.74;98320.81;4967509;29;20023;-91
2022/04/13 07:08:28;;;;;;;10.90;6.47;;;;;;;15.63;71.37;98314.69;4967481;29;20022;-91
2022/04/13 07:10:54;;;;;;;11.95;6.40;;;;;;;14.87;72.24;98302.97;4967460;29;20026;-91
2022/04/13 07:13:20;;;;;;;17.80;11.18;;;;;;;15.21;73.04;98315.72;4967728;29;20337;-91
2022/04/13 07:15:45;;;;;;;32.80;23.17;;;;;;;15.86;70.63;98319.88;4967371;28;20031;-91
2022/04/13 07:18:11;;;;;;;31.67;22.63;;;;;;;16.17;69.94;98322.81;4967718;28;20030;-91
2022/04/13 07:20:36;;;;;;;40.08;26.90;;;;;;;16.27;69.03;98333.88;4967665;28;20065;-91
2022/04/13 07:23:02;;;;;;;29.77;23.00;;;;;;;15.74;69.13;98322.19;4967384;28;20046;-91
2022/04/13 07:25:27;;;;;;;25.02;17.67;;;;;;;15.49;70.39;98329.50;4967512;29;20015;-91
2022/04/13 07:27:53;;;;;;;27.23;18.15;;;;;;;16.08;67.70;98339.19;4967266;29;20030;-91
2022/04/13 07:30:18;;;;;;;21.33;14.52;;;;;;;16.52;65.32;98343.28;4967418;29;20030;-91
2022/04/13 07:32:46;;;;;;;22.10;15.13;;;;;;;16.79;65.82;98338.47;4967094;28;20023;-91
2022/04/13 07:35:13;;;;;;;21.13;14.70;;;;;;;16.76;66.79;98338.59;4966823;28;20078;-91
2022/04/13 07:37:43;;;;;;;22.38;12.93;;;;;;;16.72;68.17;98343.22;4966910;28;20035;-91
2022/04/13 07:40:11;;;;;;;20.80;12.05;;;;;;;16.96;69.06;98352.66;4966972;28;20050;-91
2022/04/13 07:42:36;;;;;;;26.65;11.13;;;;;;;16.89;70.41;98353.88;4966825;28;20030;-91
2022/04/13 07:45:04;;;;;;;14.38;9.45;;;;;;;17.22;67.63;98364.66;4967131;28;20027;-91
2022/04/13 07:47:31;;;;;;;12.25;8.15;;;;;;;17.97;65.95;98367.88;4966771;29;20047;-91
2022/04/13 07:49:56;;;;;;;11.13;7.18;;;;;;;18.54;63.93;98362.09;4966574;29;20223;-91
2022/04/13 07:52:21;;;;;;;12.68;7.82;;;;;;;18.81;64.05;98360.53;4966761;29;20019;-91
2022/04/13 07:54:47;;;;;;;9.60;5.97;;;;;;;18.97;62.48;98358.72;4966535;29;20037;-91
2022/04/13 07:57:13;;;;;;;8.73;5.57;;;;;;;19.59;60.51;98355.94;4966626;29;20023;-91
2022/04/13 07:59:38;;;;;;;7.65;3.88;;;;;;;19.87;58.97;98355.13;4966832;29;20211;-91
2022/04/13 08:02:04;;;;;;;5.25;2.88;;;;;;;19.71;57.24;98349.00;4966390;28;20023;-91
2022/04/13 08:04:29;;;;;;;2.75;1.55;;;;;;;20.18;51.79;98361.19;4966511;29;20015;-91
2022/04/13 08:06:55;;;;;;;3.33;1.77;;;;;;;20.29;48.84;98369.44;4966612;29;20077;-91
2022/04/13 08:09:21;;;;;;;3.15;1.52;;;;;;;20.37;48.00;98367.13;4966731;29;20340;-91
2022/04/13 08:11:46;;;;;;;3.75;1.40;;;;;;;20.86;49.17;98373.75;4966406;29;20018;-91
2022/04/13 08:14:12;;;;;;;3.03;1.40;;;;;;;20.49;46.44;98370.81;4966226;29;20047;-92
2022/04/13 08:16:37;;;;;;;2.25;1.20;;;;;;;20.34;47.79;98361.97;4966215;29;20027;-91
2022/04/13 08:19:05;;;;;;;5.88;1.75;;;;;;;20.66;47.83;98367.97;4966091;29;20019;-91
2022/04/13 08:21:31;;;;;;;3.90;1.63;;;;;;;21.09;46.27;98366.91;4966073;29;20043;-91
2022/04/13 08:23:56;;;;;;;3.38;1.42;;;;;;;21.79;47.45;98363.94;4966272;29;20054;-91
2022/04/13 08:26:22;;;;;;;5.93;1.55;;;;;;;21.96;46.82;98381.53;4966073;29;20023;-91
2022/04/13 08:28:47;;;;;;;2.28;1.48;;;;;;;22.11;44.90;98377.81;4966234;29;20030;-92
2022/04/13 08:31:13;;;;;;;2.58;1.38;;;;;;;22.41;42.72;98372.97;4966250;29;20023;-92
2022/04/13 08:33:38;;;;;;;4.38;1.52;;;;;;;22.63;44.84;98379.41;4966218;29;20022;-91
2022/04/13 08:36:04;;;;;;;6.75;1.40;;;;;;;22.89;43.64;98382.88;4966201;29;20077;-92
2022/04/13 08:38:29;;;;;;;3.13;1.05;;;;;;;22.82;42.43;98373.56;4965756;29;20023;-92
2022/04/13 08:41:01;;;;;;;1.13;1.00;;;;;;;23.08;42.79;98381.44;4966058;29;20019;-92
2022/04/13 08:43:34;;;;;;;1.77;1.00;;;;;;;23.21;43.63;98376.00;4965683;29;20023;-92
2022/04/13 08:46:04;;;;;;;2.60;1.02;;;;;;;23.44;42.14;98377.03;4965904;29;20027;-92
2022/04/13 08:48:29;;;;;;;4.63;1.42;;;;;;;23.11;44.13;98367.78;4982095;28;20318;-92
2022/04/13 08:51:07;;;;;;;2.88;1.00;;;;;;;23.54;42.76;98362.75;4965522;29;20030;-92
2022/04/13 08:53:36;;;;;;;3.28;1.52;;;;;;;23.49;41.54;98358.72;4965439;28;20030;-92
2022/04/13 08:56:03;;;;;;;4.65;1.60;;;;;;;23.29;43.54;98357.53;4965833;29;20031;-92
2022/04/13 08:58:28;;;;;;;4.75;1.10;;;;;;;23.89;41.67;98363.59;4965442;28;20082;-92
2022/04/13 09:00:57;;;;;;;3.53;1.40;;;;;;;23.89;39.31;98362.78;4965322;29;20102;-92
2022/04/13 09:03:43;;;;;;;4.25;1.45;;;;;;;24.23;39.19;98368.13;4965415;29;20091;-92
2022/04/13 09:06:10;;;;;;;3.35;1.60;;;;;;;24.11;40.61;98355.63;4965307;29;20066;-92
2022/04/13 09:08:48;;;;;;;7.93;1.70;;;;;;;23.81;40.64;98365.16;4965710;29;20258;-92
2022/04/13 09:11:20;;;;;;;3.92;1.27;;;;;;;23.65;33.18;98365.50;4965429;29;20019;-92
2022/04/13 09:13:45;;;;;;;;;;;;;;;22.95;41.71;98369.88;4964998;28;20027;-92
2022/04/13 09:16:11;;;;;;;7.90;1.70;;;;;;;22.42;42.50;98363.94;4965130;28;19921;-92
2022/04/13 09:18:37;;;;;;;2.22;1.00;;;;;;;22.08;45.30;98369.97;4965197;29;20019;-92
2022/04/13 09:21:02;;;;;;;5.38;1.40;;;;;;;21.96;45.93;98352.06;4965144;29;20031;-92
2022/04/13 09:23:29;;;;;;;3.65;1.73;;;;;;;21.58;46.58;98359.16;4964922;29;20274;-92
2022/04/13 09:25:56;;;;;;;5.05;2.05;;;;;;;21.65;46.34;98358.63;4965110;29;20030;-92
2022/04/13 09:28:21;;;;;;;2.83;1.35;;;;;;;21.40;46.72;98365.75;4964924;29;20262;-92
2022/04/13 09:30:47;;;;;;;3.42;1.35;;;;;;;21.26;47.88;98364.84;4965049;29;20043;-92
2022/04/13 09:33:13;;;;;;;2.65;1.40;;;;;;;21.08;48.08;98360.69;4965262;29;20053;-92
2022/04/13 09:35:38;;;;;;;4.75;1.38;;;;;;;21.46;48.67;98370.69;4964849;29;20410;-92
2022/04/13 09:38:06;;;;;;;2.55;1.23;;;;;;;22.62;45.92;98382.22;4964868;29;20079;-92
2022/04/13 09:40:39;;;;;;;7.28;1.48;;;;;;;23.55;44.18;98385.97;4966003;29;20027;-92
2022/04/13 09:43:10;;;;;;;1.98;1.48;;;;;;;24.02;43.24;98385.94;4964901;29;20026;-92
2022/04/13 09:45:44;;;;;;;2.22;1.30;;;;;;;24.60;40.22;98392.97;4965174;29;20086;-92
2022/04/13 09:48:19;;;;;;;6.20;1.20;;;;;;;24.89;40.12;98387.00;4948705;29;20087;-92
2022/04/13 09:50:47;;;;;;;6.43;1.48;;;;;;;24.15;41.59;98378.63;4964813;29;20274;-92
2022/04/13 09:53:14;;;;;;;2.33;1.27;;;;;;;24.40;41.48;98389.19;4964773;29;20058;-92
2022/04/13 09:56:02;;;;;;;3.80;1.20;;;;;;;24.93;41.00;98391.16;4964653;29;20025;-92
2022/04/13 09:58:42;;;;;;;3.72;1.42;;;;;;;25.42;43.20;98392.53;4964605;29;20033;-92
2022/04/13 10:04:04;;;;;;;3.30;1.40;;;;;;;24.50;43.24;98386.59;4965733;29;20027;-92
2022/04/13 10:06:31;;;;;;;5.70;1.80;;;;;;;24.88;41.76;98393.38;4964521;29;20029;-92
2022/04/13 10:09:05;;;;;;;9.63;4.22;;;;;;;24.56;42.58;98387.00;4964915;29;20275;-92
2022/04/13 10:11:30;;;;;;;11.63;5.10;;;;;;;24.61;42.42;98382.06;4964759;28;20051;-92
2022/04/13 10:13:56;;;;;;;8.48;4.82;;;;;;;24.71;43.12;98382.25;4964793;29;20026;-92
2022/04/13 10:16:22;;;;;;;9.18;4.00;;;;;;;24.89;43.32;98381.63;4964524;29;20107;-92
2022/04/13 10:18:55;;;;;;;9.00;4.22;;;;;;;24.68;43.11;98380.63;4964551;29;20085;-92
2022/04/13 10:21:46;;;;;;;5.25;2.97;;;;;;;24.60;41.62;98387.59;4964781;29;20079;-92
2022/04/13 10:24:21;;;;;;;6.90;2.30;;;;;;;24.31;42.84;98387.22;4965203;28;20043;-92
2022/04/13 10:27:07;;;;;;;5.35;2.25;;;;;;;25.02;43.05;98398.47;4968190;29;20030;-92
2022/04/13 10:29:37;;;;;;;5.13;2.05;;;;;;;25.16;41.66;98392.81;4968189;29;20058;-92
2022/04/13 10:32:10;;;;;;;3.42;1.55;;;;;;;25.35;40.63;98391.34;4968529;29;20277;-92
2022/04/13 10:34:40;;;;;;;4.88;1.95;;;;;;;25.22;43.28;98386.09;4968314;29;20246;-92
2022/04/13 10:37:06;;;;;;;5.38;1.92;;;;;;;25.46;34.11;98391.31;4968045;29;20027;-92
2022/04/13 10:39:32;;;;;;;7.00;2.00;;;;;;;25.64;30.85;98387.06;4967930;29;20045;-92
2022/04/13 10:41:58;;;;;;;7.18;2.00;;;;;;;25.70;35.56;98403.59;4967958;29;20027;-91
2022/04/13 10:44:52;;;;;;;4.70;1.80;;;;;;;25.70;37.02;98402.75;4967856;29;20027;-92
2022/04/13 10:47:27;;;;;;;3.55;1.80;;;;;;;25.46;37.89;98407.50;4967524;28;20054;-92
2022/04/13 10:49:56;;;;;;;3.55;1.30;;;;;;;25.67;38.78;98394.91;4967821;29;20102;-92
2022/04/13 10:52:28;;;;;;;6.28;1.55;;;;;;;25.64;42.39;98397.84;4967767;29;20031;-91
2022/04/13 10:54:57;;;;;;;;;;;;;;;25.81;41.09;98400.00;4968105;29;20203;-92
2022/04/13 10:57:26;;;;;;;4.90;1.48;;;;;;;25.80;42.22;98398.28;4967655;28;20101;-92
2022/04/13 10:59:53;;;;;;;3.60;1.60;;;;;;;25.81;41.36;98389.22;4967644;29;20019;-92
2022/04/13 11:02:56;;;;;;;6.07;1.90;;;;;;;25.73;41.72;98386.31;4967488;29;20027;-92
2022/04/13 11:05:27;;;;;;;3.53;1.10;;;;;;;25.56;41.74;98384.19;4967078;29;20288;-92
2022/04/13 11:08:10;;;;;;;2.72;1.40;;;;;;;25.62;40.42;98378.28;4967511;29;20027;-92
2022/04/13 11:10:37;;;;;;;4.18;1.50;;;;;;;25.37;41.14;98382.16;4967474;29;20034;-92
2022/04/13 11:13:03;;;;;;;6.95;1.38;;;;;;;25.56;40.82;98381.50;4967829;29;20023;-92
2022/04/13 11:15:45;;;;;;;3.42;1.65;;;;;;;25.47;40.98;98374.16;4967541;29;20034;-92
2022/04/13 11:18:18;;;;;;;4.43;1.60;;;;;;;25.36;41.50;98382.28;4967293;29;20034;-92
2022/04/13 11:21:02;;;;;;;5.32;1.25;;;;;;;25.54;42.35;98372.66;4967269;29;20027;-92
2022/04/13 11:23:43;;;;;;;4.93;1.67;;;;;;;25.46;41.31;98372.47;4966893;29;20106;-92
2022/04/13 11:26:08;;;;;;;2.45;1.55;;;;;;;25.47;40.95;98364.25;4967133;29;20278;-92
2022/04/13 11:28:35;;;;;;;7.47;1.27;;;;;;;25.42;41.42;98360.19;4967660;29;20023;-92
2022/04/13 11:31:07;;;;;;;3.15;1.40;;;;;;;25.59;42.17;98359.66;4967544;29;20027;-92
2022/04/13 11:33:52;;;;;;;3.08;1.60;;;;;;;25.55;41.02;98360.88;4967331;29;20027;-91
2022/04/13 11:36:20;;;;;;;5.55;1.83;;;;;;;25.35;42.08;98357.19;4966704;28;20034;-92
2022/04/13 11:38:50;;;;;;;2.55;1.30;;;;;;;25.25;42.65;98370.50;4967023;29;20102;-92
2022/04/13 11:41:16;;;;;;;4.63;1.38;;;;;;;25.20;42.70;98361.97;4967160;29;20314;-92